Tarifa Jet — C4NX2 — position and weather

sailwx.info

Track history (hours):
 
Tides and Currents Weather Stations Pressure Air Temp Water Temp Dewpoint Dewpoint Depression Visibility Wind Speed Wind Dir Waves Ship Positions

Tarifa Jet

Last reported at 2017-Sep-25 00:59 UTC. Time now 2017-Sep-25 01:06 UTC.
Position N 36°01' W 005°36'.

Length 86 m; draft 3.6 m.

Type: High speed craft. MMSI: 209375000.

Date/timePositionNaut miles runAvg speedWind from/ knotsBaromVisibWave heightAir tempDewpointWater temp
2017-Sep-25 00:59N 36°01' W 005°36'1 0.2
2017-Sep-24 21:49N 35°60' W 005°36'10 4.5
2017-Sep-24 19:38N 35°54' W 005°45'724.9
2017-Sep-24 19:21N 35°59' W 005°39'7 4.8
2017-Sep-24 17:58N 35°53' W 005°44'4 1.6
2017-Sep-24 15:47N 35°50' W 005°47'1026.5
2017-Sep-24 15:25N 35°58' W 005°40'4 3.4
2017-Sep-24 14:20N 36°01' W 005°36'718.8
2017-Sep-24 13:57N 35°55' W 005°42'4 1.9
2017-Sep-24 11:50N 35°53' W 005°46'924.7
2017-Sep-24 11:29N 35°59' W 005°38'2 0.4
2017-Sep-24 05:40N 36°01' W 005°36'0 0.0
2017-Sep-24 05:30N 36°01' W 005°36'0 0.0
2017-Sep-24 05:00N 36°01' W 005°36'0 0.0
2017-Sep-24 04:30N 36°01' W 005°36'0 0.0
2017-Sep-24 03:58N 36°01' W 005°36'0 0.0
2017-Sep-24 03:29N 36°01' W 005°36'0 0.0
2017-Sep-24 03:00N 36°01' W 005°36'0 0.0
2017-Sep-24 02:30N 36°01' W 005°36'0 0.0
2017-Sep-24 02:00N 36°01' W 005°36'0 0.0
2017-Sep-24 01:29N 36°01' W 005°36'0 0.0
2017-Sep-24 00:59N 36°01' W 005°36'0 0.0
2017-Sep-24 00:28N 36°01' W 005°36'0 0.0
2017-Sep-24 00:00N 36°01' W 005°36'0 0.0
2017-Sep-23 23:30N 36°01' W 005°36'13 3.4
2017-Sep-23 19:47N 35°51' W 005°47'  
2017-Sep-21 06:16N 36°01' W 005°36'0 0.0
2017-Sep-21 06:00N 36°01' W 005°36'0 0.0
2017-Sep-21 05:29N 36°01' W 005°36'0 0.0
2017-Sep-21 04:38N 36°01' W 005°36'0 0.0
2017-Sep-21 04:22N 36°01' W 005°36'0 0.0
2017-Sep-21 03:43N 36°01' W 005°36'0 0.0
2017-Sep-21 03:20N 36°01' W 005°36'0 0.0
2017-Sep-21 02:59N 36°01' W 005°36'0 0.0
2017-Sep-21 02:30N 36°01' W 005°36'0 0.0
2017-Sep-21 01:59N 36°01' W 005°36'0 0.0
2017-Sep-21 01:27N 36°01' W 005°36'0 0.0
2017-Sep-21 00:59N 36°01' W 005°36'0 0.0
2017-Sep-21 00:28N 36°01' W 005°36'0 0.0
2017-Sep-20 23:51N 36°01' W 005°36'0 0.0
2017-Sep-20 23:30N 36°01' W 005°36'0 0.0
2017-Sep-20 23:00N 36°01' W 005°36'0 0.0
2017-Sep-20 22:29N 36°01' W 005°36'0 0.0
2017-Sep-20 21:59N 36°01' W 005°36'1021.7
2017-Sep-20 21:30N 35°53' W 005°45'2 1.4
2017-Sep-20 19:48N 35°51' W 005°46'925.7
2017-Sep-20 19:27N 35°58' W 005°40'7 1.8
2017-Sep-20 15:38N 35°53' W 005°46'724.7
2017-Sep-20 15:20N 35°59' W 005°39'8 2.3
2017-Sep-20 11:52N 35°53' W 005°46'3 0.8
2017-Sep-20 08:06N 35°56' W 005°45'622.8
2017-Sep-20 07:52N 35°59' W 005°40'3 1.5
2017-Sep-20 05:38N 36°01' W 005°36'0 0.0
2017-Sep-20 05:31N 36°01' W 005°36'0 0.0
2017-Sep-20 05:00N 36°01' W 005°36'0 0.0
2017-Sep-20 04:30N 36°01' W 005°36'0 0.0
2017-Sep-20 03:59N 36°01' W 005°36'0 0.0
2017-Sep-20 03:30N 36°01' W 005°36'0 0.0
2017-Sep-20 02:59N 36°01' W 005°36'0 0.0
2017-Sep-20 02:30N 36°01' W 005°36'0 0.0
2017-Sep-20 02:00N 36°01' W 005°36'0 0.0
2017-Sep-20 01:30N 36°01' W 005°36'0 0.0
2017-Sep-20 01:00N 36°01' W 005°36'0 0.0
2017-Sep-20 00:28N 36°01' W 005°36'0 0.0
2017-Sep-19 23:57N 36°01' W 005°36'0 0.2
2017-Sep-19 21:44N 36°00' W 005°36'828.5
2017-Sep-19 21:27N 35°54' W 005°43'6 3.4
2017-Sep-19 19:46N 35°50' W 005°47'1126.3
2017-Sep-19 19:22N 35°58' W 005°40'4 7.9
2017-Sep-19 18:55N 36°01' W 005°36'0 0.0
2017-Sep-19 18:30N 36°01' W 005°36'918.9
2017-Sep-19 18:00N 35°53' W 005°44'7 2.8
2017-Sep-19 15:30N 35°59' W 005°38'1 0.7
2017-Sep-19 14:11N 35°59' W 005°37'7 3.0
2017-Sep-19 11:47N 35°56' W 005°45'724.2
2017-Sep-19 11:30N 35°59' W 005°38'8 2.4
2017-Sep-19 07:58N 35°54' W 005°46'11 1.0
2017-Sep-18 21:46N 36°01' W 005°36'11 5.4
2017-Sep-18 19:41N 35°53' W 005°46'826.1
2017-Sep-18 19:23N 35°58' W 005°40'8 0.3
2017-Sep-17 19:41N 35°53' W 005°46'826.1
2017-Sep-17 19:22N 35°59' W 005°39'2 2.0
2017-Sep-17 18:20N 35°59' W 005°37'8 3.0
2017-Sep-17 15:38N 35°54' W 005°45'723.3
2017-Sep-17 15:19N 35°59' W 005°38'3 8.3
2017-Sep-17 15:00N 36°01' W 005°36'0 0.0
2017-Sep-17 14:19N 36°01' W 005°36'0 0.0
2017-Sep-16 21:58N 36°01' W 005°36'12 5.5
2017-Sep-16 19:50N 35°52' W 005°46'822.8
2017-Sep-16 19:28N 35°58' W 005°39'3 3.4
2017-Sep-16 18:30N 36°00' W 005°36'12 4.1
2017-Sep-16 15:42N 35°52' W 005°46'824.2
2017-Sep-16 15:21N 35°58' W 005°39'3 2.6
2017-Sep-16 14:13N 36°00' W 005°36'10 4.3
2017-Sep-16 11:49N 35°53' W 005°46'823.5
2017-Sep-16 11:27N 35°59' W 005°38'1 0.6
2017-Sep-16 10:21N 35°59' W 005°37'9 3.5
2017-Sep-16 07:43N 35°53' W 005°46'11 1.1
2017-Sep-15 21:54N 36°01' W 005°36'922.3
2017-Sep-15 21:30N 35°54' W 005°44'4 2.4
2017-Sep-15 19:54N 35°51' W 005°47'918.7
2017-Sep-15 19:24N 35°59' W 005°40'3 2.1
2017-Sep-15 18:12N 35°59' W 005°37'728.3
2017-Sep-15 17:57N 35°54' W 005°43'3 1.3
2017-Sep-15 15:47N 35°53' W 005°46'924.1
2017-Sep-15 15:24N 35°59' W 005°38'1 0.3
2017-Sep-15 11:28N 35°58' W 005°39'1 1.2
2017-Sep-15 10:17N 35°59' W 005°37'  
Track history (hours):
 
Tides and Currents Weather Stations Pressure Air Temp Water Temp Dewpoint Dewpoint Depression Visibility Wind Speed Wind Dir Waves Ship Positions

Tarifa Jet

Last reported at 2017-Sep-25 00:59 UTC. Time now 2017-Sep-25 01:06 UTC.
Position N 36°01' W 005°36'.

Length 86 m; draft 3.6 m.

Type: High speed craft. MMSI: 209375000.

Date/timePositionNaut miles runAvg speedWind from/ knotsBaromVisibWave heightAir tempDewpointWater temp
2017-Sep-25 00:59N 36°01' W 005°36'1 0.2
2017-Sep-24 21:49N 35°60' W 005°36'10 4.5
2017-Sep-24 19:38N 35°54' W 005°45'724.9
2017-Sep-24 19:21N 35°59' W 005°39'7 4.8
2017-Sep-24 17:58N 35°53' W 005°44'4 1.6
2017-Sep-24 15:47N 35°50' W 005°47'1026.5
2017-Sep-24 15:25N 35°58' W 005°40'4 3.4
2017-Sep-24 14:20N 36°01' W 005°36'718.8
2017-Sep-24 13:57N 35°55' W 005°42'4 1.9
2017-Sep-24 11:50N 35°53' W 005°46'924.7
2017-Sep-24 11:29N 35°59' W 005°38'2 0.4
2017-Sep-24 05:40N 36°01' W 005°36'0 0.0
2017-Sep-24 05:30N 36°01' W 005°36'0 0.0
2017-Sep-24 05:00N 36°01' W 005°36'0 0.0
2017-Sep-24 04:30N 36°01' W 005°36'0 0.0
2017-Sep-24 03:58N 36°01' W 005°36'0 0.0
2017-Sep-24 03:29N 36°01' W 005°36'0 0.0
2017-Sep-24 03:00N 36°01' W 005°36'0 0.0
2017-Sep-24 02:30N 36°01' W 005°36'0 0.0
2017-Sep-24 02:00N 36°01' W 005°36'0 0.0
2017-Sep-24 01:29N 36°01' W 005°36'0 0.0
2017-Sep-24 00:59N 36°01' W 005°36'0 0.0
2017-Sep-24 00:28N 36°01' W 005°36'0 0.0
2017-Sep-24 00:00N 36°01' W 005°36'0 0.0
2017-Sep-23 23:30N 36°01' W 005°36'13 3.4
2017-Sep-23 19:47N 35°51' W 005°47'  
2017-Sep-21 06:16N 36°01' W 005°36'0 0.0
2017-Sep-21 06:00N 36°01' W 005°36'0 0.0
2017-Sep-21 05:29N 36°01' W 005°36'0 0.0
2017-Sep-21 04:38N 36°01' W 005°36'0 0.0
2017-Sep-21 04:22N 36°01' W 005°36'0 0.0
2017-Sep-21 03:43N 36°01' W 005°36'0 0.0
2017-Sep-21 03:20N 36°01' W 005°36'0 0.0
2017-Sep-21 02:59N 36°01' W 005°36'0 0.0
2017-Sep-21 02:30N 36°01' W 005°36'0 0.0
2017-Sep-21 01:59N 36°01' W 005°36'0 0.0
2017-Sep-21 01:27N 36°01' W 005°36'0 0.0
2017-Sep-21 00:59N 36°01' W 005°36'0 0.0
2017-Sep-21 00:28N 36°01' W 005°36'0 0.0
2017-Sep-20 23:51N 36°01' W 005°36'0 0.0
2017-Sep-20 23:30N 36°01' W 005°36'0 0.0
2017-Sep-20 23:00N 36°01' W 005°36'0 0.0
2017-Sep-20 22:29N 36°01' W 005°36'0 0.0
2017-Sep-20 21:59N 36°01' W 005°36'1021.7
2017-Sep-20 21:30N 35°53' W 005°45'2 1.4
2017-Sep-20 19:48N 35°51' W 005°46'925.7
2017-Sep-20 19:27N 35°58' W 005°40'7 1.8
2017-Sep-20 15:38N 35°53' W 005°46'724.7
2017-Sep-20 15:20N 35°59' W 005°39'8 2.3
2017-Sep-20 11:52N 35°53' W 005°46'3 0.8
2017-Sep-20 08:06N 35°56' W 005°45'622.8
2017-Sep-20 07:52N 35°59' W 005°40'3 1.5
2017-Sep-20 05:38N 36°01' W 005°36'0 0.0
2017-Sep-20 05:31N 36°01' W 005°36'0 0.0
2017-Sep-20 05:00N 36°01' W 005°36'0 0.0
2017-Sep-20 04:30N 36°01' W 005°36'0 0.0
2017-Sep-20 03:59N 36°01' W 005°36'0 0.0
2017-Sep-20 03:30N 36°01' W 005°36'0 0.0
2017-Sep-20 02:59N 36°01' W 005°36'0 0.0
2017-Sep-20 02:30N 36°01' W 005°36'0 0.0
2017-Sep-20 02:00N 36°01' W 005°36'0 0.0
2017-Sep-20 01:30N 36°01' W 005°36'0 0.0
2017-Sep-20 01:00N 36°01' W 005°36'0 0.0
2017-Sep-20 00:28N 36°01' W 005°36'0 0.0
2017-Sep-19 23:57N 36°01' W 005°36'0 0.2
2017-Sep-19 21:44N 36°00' W 005°36'828.5
2017-Sep-19 21:27N 35°54' W 005°43'6 3.4
2017-Sep-19 19:46N 35°50' W 005°47'1126.3
2017-Sep-19 19:22N 35°58' W 005°40'4 7.9
2017-Sep-19 18:55N 36°01' W 005°36'0 0.0
2017-Sep-19 18:30N 36°01' W 005°36'918.9
2017-Sep-19 18:00N 35°53' W 005°44'7 2.8
2017-Sep-19 15:30N 35°59' W 005°38'1 0.7
2017-Sep-19 14:11N 35°59' W 005°37'7 3.0
2017-Sep-19 11:47N 35°56' W 005°45'724.2
2017-Sep-19 11:30N 35°59' W 005°38'8 2.4
2017-Sep-19 07:58N 35°54' W 005°46'11 1.0
2017-Sep-18 21:46N 36°01' W 005°36'11 5.4
2017-Sep-18 19:41N 35°53' W 005°46'826.1
2017-Sep-18 19:23N 35°58' W 005°40'8 0.3
2017-Sep-17 19:41N 35°53' W 005°46'826.1
2017-Sep-17 19:22N 35°59' W 005°39'2 2.0
2017-Sep-17 18:20N 35°59' W 005°37'8 3.0
2017-Sep-17 15:38N 35°54' W 005°45'723.3
2017-Sep-17 15:19N 35°59' W 005°38'3 8.3
2017-Sep-17 15:00N 36°01' W 005°36'0 0.0
2017-Sep-17 14:19N 36°01' W 005°36'0 0.0
2017-Sep-16 21:58N 36°01' W 005°36'12 5.5
2017-Sep-16 19:50N 35°52' W 005°46'822.8
2017-Sep-16 19:28N 35°58' W 005°39'3 3.4
2017-Sep-16 18:30N 36°00' W 005°36'12 4.1
2017-Sep-16 15:42N 35°52' W 005°46'824.2
2017-Sep-16 15:21N 35°58' W 005°39'3 2.6
2017-Sep-16 14:13N 36°00' W 005°36'10 4.3
2017-Sep-16 11:49N 35°53' W 005°46'823.5
2017-Sep-16 11:27N 35°59' W 005°38'1 0.6
2017-Sep-16 10:21N 35°59' W 005°37'9 3.5
2017-Sep-16 07:43N 35°53' W 005°46'11 1.1
2017-Sep-15 21:54N 36°01' W 005°36'922.3
2017-Sep-15 21:30N 35°54' W 005°44'4 2.4
2017-Sep-15 19:54N 35°51' W 005°47'918.7
2017-Sep-15 19:24N 35°59' W 005°40'3 2.1
2017-Sep-15 18:12N 35°59' W 005°37'728.3
2017-Sep-15 17:57N 35°54' W 005°43'3 1.3
2017-Sep-15 15:47N 35°53' W 005°46'924.1
2017-Sep-15 15:24N 35°59' W 005°38'1 0.3
2017-Sep-15 11:28N 35°58' W 005°39'1 1.2
2017-Sep-15 10:17N 35°59' W 005°37'  

Dump ship's entire track history